createdAt,value
2022-10-31T00:01:16.903Z,1010.226
2022-10-31T00:06:29.407Z,1010.305
2022-10-31T00:11:43.172Z,1010.312
2022-10-31T00:16:55.603Z,1010.351
2022-10-31T00:22:07.962Z,1010.379
2022-10-31T00:27:20.023Z,1010.337
2022-10-31T00:32:32.368Z,1010.366
2022-10-31T00:37:44.641Z,1010.467
2022-10-31T00:42:57.414Z,1010.487
2022-10-31T00:48:09.425Z,1010.534
2022-10-31T00:53:21.649Z,1010.59
2022-10-31T00:58:34.071Z,1010.592
2022-10-31T01:03:46.285Z,1010.629
2022-10-31T01:08:58.656Z,1010.73
2022-10-31T01:14:10.863Z,1010.667
2022-10-31T01:19:23.186Z,1010.73
2022-10-31T01:24:35.347Z,1010.635
2022-10-31T01:29:47.391Z,1010.691
2022-10-31T01:34:59.639Z,1010.708
2022-10-31T01:40:12.087Z,1010.73
2022-10-31T01:45:24.377Z,1010.683
2022-10-31T01:50:36.617Z,1010.74
2022-10-31T01:55:48.952Z,1010.837
2022-10-31T02:01:03.251Z,1010.83
2022-10-31T02:06:13.585Z,1010.79
2022-10-31T02:11:25.777Z,1010.789
2022-10-31T02:16:38.178Z,1010.83
2022-10-31T02:21:50.581Z,1010.81
2022-10-31T02:27:02.817Z,1010.778
2022-10-31T02:32:15.174Z,1010.772
2022-10-31T02:37:27.783Z,1010.796
2022-10-31T02:42:39.968Z,1010.857
2022-10-31T02:47:52.570Z,1010.96
2022-10-31T02:53:04.755Z,1010.94
2022-10-31T02:58:17.031Z,1011.044
2022-10-31T03:03:29.431Z,1011.052
2022-10-31T03:08:41.586Z,1011.047
2022-10-31T03:13:53.970Z,1011.053
2022-10-31T03:19:06.301Z,1011.092
2022-10-31T03:24:18.844Z,1011.127
2022-10-31T03:29:31.043Z,1011.211
2022-10-31T03:34:43.373Z,1011.325
2022-10-31T03:39:56.015Z,1011.395
2022-10-31T03:45:08.321Z,1011.379
2022-10-31T03:50:20.525Z,1011.39
2022-10-31T03:55:33.047Z,1011.425
2022-10-31T04:00:45.333Z,1011.44
2022-10-31T04:05:57.495Z,1011.467
2022-10-31T04:11:09.816Z,1011.467
2022-10-31T04:16:22.066Z,1011.516
2022-10-31T04:21:34.668Z,1011.506
2022-10-31T04:26:46.914Z,1011.523
2022-10-31T04:31:59.202Z,1011.633
2022-10-31T04:37:11.444Z,1011.627
2022-10-31T04:42:23.789Z,1011.612
2022-10-31T04:47:36.159Z,1011.618
2022-10-31T04:52:48.521Z,1011.621
2022-10-31T04:58:01.105Z,1011.619
2022-10-31T05:03:13.196Z,1011.659
2022-10-31T05:08:25.552Z,1011.703
2022-10-31T05:13:38.036Z,1011.771
2022-10-31T05:18:50.878Z,1011.768
2022-10-31T05:24:03.279Z,1011.782
2022-10-31T05:29:15.721Z,1011.784
2022-10-31T05:34:28.050Z,1011.821
2022-10-31T05:39:40.451Z,1011.839
2022-10-31T05:44:52.831Z,1011.947
2022-10-31T05:56:32.920Z,1011.954
2022-10-31T06:01:45.399Z,1012.051
2022-10-31T06:06:57.739Z,1012.04
2022-10-31T06:12:10.302Z,1012.068
2022-10-31T06:17:22.518Z,1012.108
2022-10-31T06:22:34.908Z,1012.07
2022-10-31T06:27:47.461Z,1012.086
2022-10-31T06:32:59.914Z,1012.197
2022-10-31T06:38:12.189Z,1012.229
2022-10-31T06:43:24.636Z,1012.337
2022-10-31T06:48:36.788Z,1012.3
2022-10-31T06:53:49.168Z,1012.469
2022-10-31T06:59:01.725Z,1012.477
2022-10-31T07:04:14.223Z,1012.577
2022-10-31T07:09:26.621Z,1012.523
2022-10-31T07:14:38.949Z,1012.615
2022-10-31T07:19:51.296Z,1012.569
2022-10-31T07:25:03.731Z,1012.674
2022-10-31T07:30:16.178Z,1012.646
2022-10-31T07:35:28.373Z,1012.663
2022-10-31T07:40:40.782Z,1012.696
2022-10-31T07:45:53.246Z,1012.727
2022-10-31T07:51:05.593Z,1012.799
2022-10-31T07:56:17.847Z,1012.891
2022-10-31T08:01:30.196Z,1012.921
2022-10-31T08:06:42.715Z,1012.931
2022-10-31T08:11:55.028Z,1012.965
2022-10-31T08:17:07.382Z,1013.017
2022-10-31T08:22:19.692Z,1013.163
2022-10-31T08:27:31.902Z,1013.172
2022-10-31T08:32:44.147Z,1013.11
2022-10-31T08:37:56.611Z,1013.01
2022-10-31T08:43:09.390Z,1012.975
2022-10-31T08:48:21.743Z,1012.974
2022-10-31T08:53:34.153Z,1013.113
2022-10-31T08:58:46.479Z,1013.072
2022-10-31T09:09:48.256Z,1013.188
2022-10-31T09:15:00.543Z,1013.235
2022-10-31T09:20:12.860Z,1013.263
2022-10-31T09:30:37.266Z,1013.278
2022-10-31T09:35:49.530Z,1013.339
2022-10-31T09:41:02.332Z,1013.409
2022-10-31T09:46:14.915Z,1013.492
2022-10-31T09:51:27.218Z,1013.421
2022-10-31T09:56:39.819Z,1013.437
2022-10-31T10:01:52.447Z,1013.442
2022-10-31T10:07:04.663Z,1013.427
2022-10-31T10:12:17.121Z,1013.393
2022-10-31T10:17:29.869Z,1013.324
2022-10-31T10:22:42.182Z,1013.365
2022-10-31T10:27:54.569Z,1013.38
2022-10-31T10:38:19.809Z,1013.194
2022-10-31T10:43:32.349Z,1013.211
2022-10-31T10:48:44.817Z,1013.262
2022-10-31T10:59:09.792Z,1013.207
2022-10-31T11:04:22.304Z,1013.146
2022-10-31T11:09:34.749Z,1013.194
2022-10-31T11:20:02.361Z,1013.064
2022-10-31T11:25:14.887Z,1013.08
2022-10-31T11:30:27.291Z,1013.052
2022-10-31T11:35:39.843Z,1013.065
2022-10-31T11:40:52.346Z,1013.051
2022-10-31T11:51:17.019Z,1013.104
2022-10-31T11:56:29.322Z,1013.065
2022-10-31T12:01:42.522Z,1013.033
2022-10-31T12:06:53.994Z,1013.03
2022-10-31T12:12:06.363Z,1013.01
2022-10-31T12:17:18.815Z,1012.921
2022-10-31T12:22:31.391Z,1012.938
2022-10-31T12:27:43.788Z,1012.874
2022-10-31T12:32:56.118Z,1012.757
2022-10-31T12:38:08.587Z,1012.751
2022-10-31T12:43:20.964Z,1012.744
2022-10-31T12:48:33.164Z,1012.742
2022-10-31T12:53:48.301Z,1012.675
2022-10-31T12:59:00.570Z,1012.682
2022-10-31T13:04:12.999Z,1012.624
2022-10-31T13:09:25.392Z,1012.595
2022-10-31T13:14:37.775Z,1012.545
2022-10-31T13:19:50.296Z,1012.563
2022-10-31T13:25:02.741Z,1012.56
2022-10-31T13:30:15.977Z,1012.498
2022-10-31T13:35:30.841Z,1012.502
2022-10-31T13:40:43.418Z,1012.486
2022-10-31T13:51:08.651Z,1012.394
2022-10-31T14:01:33.118Z,1012.345
2022-10-31T14:06:45.102Z,1012.333
2022-10-31T14:11:57.253Z,1012.245
2022-10-31T14:17:09.445Z,1012.195
2022-10-31T14:27:33.871Z,1012.137
2022-10-31T14:32:46.206Z,1012.1
2022-10-31T14:37:58.474Z,1012.035
2022-10-31T14:43:10.378Z,1011.98
2022-10-31T14:48:22.680Z,1011.961
2022-10-31T14:53:34.993Z,1011.915
2022-10-31T14:58:47.198Z,1011.9
2022-10-31T15:04:28.959Z,1011.912
2022-10-31T15:09:11.851Z,1011.89
2022-10-31T15:14:24.348Z,1011.801
2022-10-31T15:19:36.491Z,1011.774
2022-10-31T15:30:01.236Z,1011.745
2022-10-31T15:35:13.361Z,1011.708
2022-10-31T15:40:25.584Z,1011.677
2022-10-31T15:45:39.148Z,1011.682
2022-10-31T15:50:51.574Z,1011.682
2022-10-31T15:56:03.697Z,1011.733
2022-10-31T16:01:16.280Z,1011.722
2022-10-31T16:06:28.653Z,1011.713
2022-10-31T16:11:40.889Z,1011.784
2022-10-31T16:16:53.174Z,1011.758
2022-10-31T16:27:17.835Z,1011.755
2022-10-31T16:32:30.390Z,1011.755
2022-10-31T16:37:42.876Z,1011.752
2022-10-31T16:42:55.331Z,1011.693
2022-10-31T16:48:07.545Z,1011.645
2022-10-31T16:53:28.755Z,1011.624
2022-10-31T16:58:41.080Z,1011.593
2022-10-31T17:03:53.353Z,1011.54
2022-10-31T17:09:05.834Z,1011.617
2022-10-31T17:14:18.161Z,1011.593
2022-10-31T17:19:30.542Z,1011.557
2022-10-31T17:24:42.712Z,1011.512
2022-10-31T17:29:55.013Z,1011.483
2022-10-31T17:35:07.393Z,1011.428
2022-10-31T17:40:19.769Z,1011.376
2022-10-31T17:45:32.268Z,1011.328
2022-10-31T17:50:44.812Z,1011.3
2022-10-31T17:55:57.453Z,1011.332
2022-10-31T18:01:09.949Z,1011.295
2022-10-31T18:06:22.008Z,1011.304
2022-10-31T18:11:34.328Z,1011.266
2022-10-31T18:16:46.988Z,1011.255
2022-10-31T18:21:59.482Z,1011.185
2022-10-31T18:27:11.794Z,1011.213
2022-10-31T18:32:24.164Z,1011.17
2022-10-31T18:37:36.474Z,1011.126
2022-10-31T18:42:48.867Z,1011.058
2022-10-31T18:48:01.617Z,1011.023
2022-10-31T18:53:13.873Z,1011.05
2022-10-31T18:58:26.221Z,1011.056
2022-10-31T19:03:38.671Z,1011.038
2022-10-31T19:08:51.029Z,1010.971
2022-10-31T19:14:03.345Z,1010.894
2022-10-31T19:19:15.672Z,1010.888
2022-10-31T19:24:27.888Z,1010.822
2022-10-31T19:29:40.317Z,1010.748
2022-10-31T19:34:52.555Z,1010.728
2022-10-31T19:40:04.702Z,1010.634
2022-10-31T19:45:17.053Z,1010.6
2022-10-31T19:50:29.422Z,1010.554
2022-10-31T19:55:44.259Z,1010.483
2022-10-31T20:00:56.613Z,1010.403
2022-10-31T20:06:08.760Z,1010.393
2022-10-31T20:11:21.036Z,1010.364
2022-10-31T20:16:33.334Z,1010.304
2022-10-31T20:21:45.669Z,1010.269
2022-10-31T20:26:58.216Z,1010.241
2022-10-31T20:32:10.490Z,1010.196
2022-10-31T20:37:22.961Z,1010.201
2022-10-31T20:42:35.375Z,1010.211
2022-10-31T20:47:47.584Z,1010.166
2022-10-31T20:53:00.304Z,1010.095
2022-10-31T20:58:12.306Z,1010.044
2022-10-31T21:03:24.679Z,1009.943
2022-10-31T21:08:37.033Z,1009.967
2022-10-31T21:13:49.340Z,1009.946
2022-10-31T21:19:01.697Z,1009.845
2022-10-31T21:24:14.324Z,1009.852
2022-10-31T21:29:26.659Z,1009.762
2022-10-31T21:34:38.994Z,1009.719
2022-10-31T21:39:51.581Z,1009.642
2022-10-31T21:45:03.743Z,1009.575
2022-10-31T21:50:16.105Z,1009.511
2022-10-31T21:55:28.318Z,1009.478
2022-10-31T22:00:40.879Z,1009.433
2022-10-31T22:05:54.734Z,1009.454
2022-10-31T22:11:05.316Z,1009.353
2022-10-31T22:21:29.905Z,1009.417
2022-10-31T22:26:42.174Z,1009.334
2022-10-31T22:31:57.150Z,1009.348
2022-10-31T22:37:06.539Z,1009.258
2022-10-31T22:42:19.015Z,1009.177
2022-10-31T22:47:31.342Z,1009.083
2022-10-31T22:52:43.656Z,1008.955
2022-10-31T22:57:55.806Z,1008.81
2022-10-31T23:03:08.189Z,1008.737
2022-10-31T23:08:20.431Z,1008.693
2022-10-31T23:13:32.766Z,1008.707
2022-10-31T23:18:49.893Z,1008.718
2022-10-31T23:23:57.707Z,1008.615
2022-10-31T23:29:10.048Z,1008.551
2022-10-31T23:39:34.889Z,1008.439
2022-10-31T23:44:47.238Z,1008.361
2022-10-31T23:49:59.377Z,1008.218
2022-10-31T23:55:14.515Z,1008.137
